createdAt,value
2023-01-31T00:01:38.686Z,2.71
2023-01-31T00:04:08.337Z,2.67
2023-01-31T00:06:42.248Z,2.75
2023-01-31T00:09:10.806Z,2.71
2023-01-31T00:11:37.655Z,2.77
2023-01-31T00:14:06.354Z,2.75
2023-01-31T00:16:33.649Z,2.73
2023-01-31T00:19:00.672Z,2.71
2023-01-31T00:21:29.214Z,2.79
2023-01-31T00:23:57.324Z,2.78
2023-01-31T00:26:30.070Z,2.90
2023-01-31T00:28:59.296Z,2.86
2023-01-31T00:31:28.795Z,2.89
2023-01-31T00:33:56.384Z,2.90
2023-01-31T00:36:26.323Z,2.92
2023-01-31T00:38:55.434Z,2.97
2023-01-31T00:41:24.204Z,2.95
2023-01-31T00:43:51.449Z,2.93
2023-01-31T00:46:20.781Z,2.91
2023-01-31T00:48:47.810Z,2.88
2023-01-31T00:51:14.827Z,2.84
2023-01-31T00:53:41.361Z,2.83
2023-01-31T00:56:21.741Z,2.84
2023-01-31T00:58:49.145Z,2.83
2023-01-31T01:01:19.103Z,2.75
2023-01-31T01:03:46.886Z,2.76
2023-01-31T01:06:14.331Z,2.75
2023-01-31T01:08:42.185Z,2.72
2023-01-31T01:11:09.998Z,2.63
2023-01-31T01:13:37.480Z,2.69
2023-01-31T01:16:10.062Z,2.65
2023-01-31T01:18:37.421Z,2.64
2023-01-31T01:21:12.787Z,2.76
2023-01-31T01:23:41.197Z,2.80
2023-01-31T01:26:14.779Z,2.79
2023-01-31T01:28:41.581Z,2.84
2023-01-31T01:31:10.550Z,2.89
2023-01-31T01:33:37.438Z,2.83
2023-01-31T01:36:06.747Z,2.83
2023-01-31T01:38:37.824Z,2.85
2023-01-31T01:41:05.359Z,2.83
2023-01-31T01:43:52.449Z,2.91
2023-01-31T01:46:26.282Z,2.84
2023-01-31T01:49:00.555Z,2.88
2023-01-31T01:51:30.013Z,2.89
2023-01-31T01:54:00.594Z,2.93
2023-01-31T01:56:32.711Z,2.88
2023-01-31T01:59:07.604Z,2.81
2023-01-31T02:01:37.409Z,2.83
2023-01-31T02:04:07.666Z,2.86
2023-01-31T02:06:34.420Z,2.87
2023-01-31T02:09:03.714Z,2.81
2023-01-31T02:11:32.445Z,2.80
2023-01-31T02:14:05.299Z,2.92
2023-01-31T02:16:32.114Z,2.88
2023-01-31T02:18:59.360Z,2.90
2023-01-31T02:21:53.626Z,2.90
2023-01-31T02:24:35.153Z,2.90
2023-01-31T02:27:13.549Z,2.85
2023-01-31T02:30:16.799Z,2.93
2023-01-31T02:33:10.590Z,2.78
2023-01-31T02:36:01.396Z,2.80
2023-01-31T02:38:56.517Z,2.74
2023-01-31T02:41:37.635Z,2.73
2023-01-31T02:44:38.441Z,2.70
2023-01-31T02:47:32.096Z,2.73
2023-01-31T02:50:07.442Z,2.72
2023-01-31T02:52:47.321Z,2.69
2023-01-31T02:55:45.340Z,2.61
2023-01-31T02:58:15.079Z,2.68
2023-01-31T03:00:45.718Z,2.63
2023-01-31T03:03:42.012Z,2.56
2023-01-31T03:06:23.754Z,2.62
2023-01-31T03:09:28.523Z,2.68
2023-01-31T03:12:03.017Z,2.67
2023-01-31T03:15:00.649Z,2.63
2023-01-31T03:18:06.915Z,2.63
2023-01-31T03:20:44.516Z,2.72
2023-01-31T03:23:16.758Z,2.65
2023-01-31T03:25:45.038Z,2.78
2023-01-31T03:28:16.371Z,2.78
2023-01-31T03:31:00.133Z,2.82
2023-01-31T03:33:31.615Z,2.77
2023-01-31T03:36:25.865Z,2.83
2023-01-31T03:39:16.405Z,2.87
2023-01-31T03:42:07.562Z,2.87
2023-01-31T03:44:53.759Z,2.84
2023-01-31T03:47:45.868Z,2.86
2023-01-31T03:50:30.691Z,2.79
2023-01-31T03:53:05.935Z,2.79
2023-01-31T03:55:40.333Z,2.82
2023-01-31T03:58:09.613Z,2.74
2023-01-31T04:00:39.152Z,2.74
2023-01-31T04:03:16.299Z,2.66
2023-01-31T04:05:43.664Z,2.60
2023-01-31T04:08:10.305Z,2.71
2023-01-31T04:10:37.298Z,2.61
2023-01-31T04:13:04.327Z,2.51
2023-01-31T04:15:30.948Z,2.59
2023-01-31T04:17:57.527Z,2.58
2023-01-31T04:20:24.240Z,2.53
2023-01-31T04:22:50.803Z,2.55
2023-01-31T04:25:18.096Z,2.62
2023-01-31T04:27:45.181Z,2.65
2023-01-31T04:30:12.331Z,2.60
2023-01-31T04:32:39.043Z,2.56
2023-01-31T04:35:06.014Z,2.57
2023-01-31T04:37:33.010Z,2.71
2023-01-31T04:39:59.730Z,2.58
2023-01-31T04:42:26.403Z,2.64
2023-01-31T04:44:53.274Z,2.64
2023-01-31T04:47:19.970Z,2.57
2023-01-31T04:49:46.699Z,2.49
2023-01-31T04:52:13.473Z,2.58
2023-01-31T04:54:40.205Z,2.61
2023-01-31T04:57:06.749Z,2.53
2023-01-31T04:59:33.855Z,2.50
2023-01-31T05:02:00.535Z,2.47
2023-01-31T05:04:27.113Z,2.53
2023-01-31T05:06:54.225Z,2.45
2023-01-31T05:09:22.880Z,2.53
2023-01-31T05:11:49.888Z,2.45
2023-01-31T05:14:17.221Z,2.51
2023-01-31T05:16:47.265Z,2.44
2023-01-31T05:19:15.437Z,2.40
2023-01-31T05:22:00.402Z,2.39
2023-01-31T05:24:29.366Z,2.19
2023-01-31T05:26:58.747Z,2.14
2023-01-31T05:29:27.008Z,2.18
2023-01-31T05:31:58.228Z,2.13
2023-01-31T05:34:26.432Z,2.06
2023-01-31T05:36:53.324Z,2.16
2023-01-31T05:39:20.185Z,2.05
2023-01-31T05:41:46.888Z,2.07
2023-01-31T05:44:14.712Z,2.09
2023-01-31T05:46:41.327Z,1.95
2023-01-31T05:49:08.407Z,1.91
2023-01-31T05:51:34.993Z,2.06
2023-01-31T05:54:02.043Z,2.14
2023-01-31T05:56:28.843Z,2.09
2023-01-31T05:58:55.635Z,2.15
2023-01-31T06:01:25.218Z,1.99
2023-01-31T06:03:52.214Z,2.07
2023-01-31T06:06:19.927Z,2.00
2023-01-31T06:08:46.988Z,2.06
2023-01-31T06:11:14.333Z,2.18
2023-01-31T06:13:43.757Z,2.07
2023-01-31T06:16:11.281Z,2.16
2023-01-31T06:18:37.931Z,2.19
2023-01-31T06:21:04.902Z,2.24
2023-01-31T06:23:31.833Z,2.26
2023-01-31T06:25:58.525Z,2.12
2023-01-31T06:28:25.328Z,2.17
2023-01-31T06:30:51.963Z,2.29
2023-01-31T06:33:18.673Z,2.25
2023-01-31T06:35:45.320Z,2.26
2023-01-31T06:38:13.418Z,2.26
2023-01-31T06:40:39.922Z,2.35
2023-01-31T06:43:06.745Z,2.37
2023-01-31T06:45:33.312Z,2.44
2023-01-31T06:48:00.079Z,2.43
2023-01-31T06:50:26.691Z,2.38
2023-01-31T06:52:54.267Z,2.45
2023-01-31T06:55:21.514Z,2.48
2023-01-31T06:57:49.350Z,2.62
2023-01-31T07:00:17.213Z,2.67
2023-01-31T07:02:43.936Z,2.61
2023-01-31T07:05:10.547Z,2.57
2023-01-31T07:07:37.250Z,2.51
2023-01-31T07:10:04.351Z,2.63
2023-01-31T07:12:31.467Z,2.54
2023-01-31T07:14:58.371Z,2.62
2023-01-31T07:17:25.169Z,2.70
2023-01-31T07:19:51.835Z,2.69
2023-01-31T07:22:18.579Z,2.67
2023-01-31T07:24:45.209Z,2.74
2023-01-31T07:27:15.390Z,2.68
2023-01-31T07:29:43.952Z,2.77
2023-01-31T07:32:11.277Z,2.76
2023-01-31T07:34:38.076Z,2.84
2023-01-31T07:37:04.948Z,2.83
2023-01-31T07:39:32.290Z,2.84
2023-01-31T07:41:58.999Z,2.92
2023-01-31T07:44:25.813Z,2.93
2023-01-31T07:46:54.893Z,3.03
2023-01-31T07:49:21.686Z,2.95
2023-01-31T07:51:48.381Z,3.01
2023-01-31T07:54:15.169Z,3.02
2023-01-31T07:56:41.846Z,2.97
2023-01-31T07:59:08.525Z,3.01
2023-01-31T08:01:53.503Z,3.04
2023-01-31T08:04:22.341Z,3.11
2023-01-31T08:06:52.222Z,3.15
2023-01-31T08:09:18.926Z,3.16
2023-01-31T08:11:46.067Z,3.14
2023-01-31T08:14:12.938Z,3.22
2023-01-31T08:16:40.012Z,3.15
2023-01-31T08:19:06.617Z,3.23
2023-01-31T08:21:33.301Z,3.31
2023-01-31T08:23:59.926Z,3.26
2023-01-31T08:26:26.691Z,3.20
2023-01-31T08:28:57.264Z,3.26
2023-01-31T08:31:26.015Z,3.20
2023-01-31T08:33:53.460Z,3.30
2023-01-31T08:36:21.740Z,3.41
2023-01-31T08:38:49.858Z,3.38
2023-01-31T08:41:18.136Z,3.40
2023-01-31T08:43:55.939Z,3.38
2023-01-31T08:46:28.043Z,3.36
2023-01-31T08:48:54.871Z,3.42
2023-01-31T08:51:22.523Z,3.42
2023-01-31T08:53:49.575Z,3.48
2023-01-31T08:56:16.645Z,3.49
2023-01-31T08:58:44.747Z,3.56
2023-01-31T09:01:16.526Z,3.70
2023-01-31T09:03:45.182Z,3.79
2023-01-31T09:06:18.291Z,3.75
2023-01-31T09:08:45.393Z,3.83
2023-01-31T09:11:17.532Z,3.75
2023-01-31T09:13:45.141Z,3.81
2023-01-31T09:16:13.953Z,3.80
2023-01-31T09:18:41.599Z,3.82
2023-01-31T09:21:15.055Z,3.79
2023-01-31T09:23:43.084Z,3.85
2023-01-31T09:26:11.651Z,3.91
2023-01-31T09:28:38.800Z,3.85
2023-01-31T09:31:11.596Z,3.89
2023-01-31T09:33:38.463Z,3.91
2023-01-31T09:36:08.225Z,3.87
2023-01-31T09:38:35.554Z,4.00
2023-01-31T09:41:05.861Z,3.87
2023-01-31T09:43:43.476Z,3.96
2023-01-31T09:46:20.126Z,4.05
2023-01-31T09:48:51.306Z,4.04
2023-01-31T09:51:18.950Z,4.14
2023-01-31T09:53:46.448Z,4.22
2023-01-31T09:56:35.987Z,4.32
2023-01-31T09:59:18.157Z,4.29
2023-01-31T10:01:53.942Z,4.37
2023-01-31T10:04:40.117Z,4.25
2023-01-31T10:07:10.622Z,4.22
2023-01-31T10:09:45.268Z,4.31
2023-01-31T10:12:22.984Z,4.35
2023-01-31T10:14:54.402Z,4.44
2023-01-31T10:17:29.143Z,4.50
2023-01-31T10:20:19.850Z,4.55
2023-01-31T10:22:57.700Z,4.52
2023-01-31T10:25:29.172Z,4.61
2023-01-31T10:28:02.910Z,4.68
2023-01-31T10:30:42.402Z,4.70
2023-01-31T10:33:23.191Z,4.68
2023-01-31T10:35:52.684Z,4.66
2023-01-31T10:38:26.479Z,4.65
2023-01-31T10:41:10.968Z,4.61
2023-01-31T10:43:43.459Z,4.57
2023-01-31T10:46:14.142Z,4.58
2023-01-31T10:48:47.181Z,4.50
2023-01-31T10:51:14.010Z,4.44
2023-01-31T10:54:09.503Z,4.40
2023-01-31T10:56:41.968Z,4.30
2023-01-31T10:59:23.987Z,4.32
2023-01-31T11:01:51.318Z,4.41
2023-01-31T11:04:35.785Z,4.35
2023-01-31T11:07:02.660Z,4.33
2023-01-31T11:09:34.258Z,4.35
2023-01-31T11:12:04.403Z,4.28
2023-01-31T11:14:31.797Z,4.33
2023-01-31T11:17:17.332Z,4.33
2023-01-31T11:19:52.935Z,4.37
2023-01-31T11:22:31.818Z,4.21
2023-01-31T11:25:01.289Z,4.25
2023-01-31T11:27:39.546Z,4.22
2023-01-31T11:30:08.034Z,4.20
2023-01-31T11:32:37.291Z,4.17
2023-01-31T11:35:21.846Z,4.15
2023-01-31T11:37:57.374Z,4.15
2023-01-31T11:40:34.862Z,4.09
2023-01-31T11:43:04.186Z,4.11
2023-01-31T11:45:33.204Z,4.09
2023-01-31T11:48:19.917Z,4.06
2023-01-31T11:50:52.617Z,3.97
2023-01-31T11:53:21.482Z,3.98
2023-01-31T11:55:49.803Z,4.05
2023-01-31T11:58:31.560Z,3.98
2023-01-31T12:01:14.698Z,4.04
2023-01-31T12:04:01.177Z,3.99
2023-01-31T12:06:37.677Z,3.98
2023-01-31T12:09:26.595Z,3.96
2023-01-31T12:11:59.977Z,3.92
2023-01-31T12:14:39.740Z,3.94
2023-01-31T12:17:12.803Z,3.83
2023-01-31T12:20:28.198Z,3.82
2023-01-31T12:23:11.664Z,3.81
2023-01-31T12:26:04.592Z,3.83
2023-01-31T12:28:34.890Z,3.91
2023-01-31T12:31:25.805Z,3.98
2023-01-31T12:34:13.851Z,4.01
2023-01-31T12:37:05.867Z,4.02
2023-01-31T12:39:40.786Z,4.06
2023-01-31T12:42:35.327Z,4.14
2023-01-31T12:45:22.132Z,4.13
2023-01-31T12:47:54.890Z,4.17
2023-01-31T12:50:52.070Z,4.10
2023-01-31T12:53:55.913Z,4.19
2023-01-31T12:56:36.899Z,4.24
2023-01-31T12:59:44.807Z,4.34
2023-01-31T13:02:31.108Z,4.31
2023-01-31T13:05:15.707Z,4.26
2023-01-31T13:07:54.640Z,4.29
2023-01-31T13:10:33.476Z,4.31
2023-01-31T13:13:00.886Z,4.24
2023-01-31T13:15:39.086Z,4.21
2023-01-31T13:18:07.260Z,4.17
2023-01-31T13:20:41.159Z,4.18
2023-01-31T13:23:18.693Z,4.21
2023-01-31T13:25:53.591Z,4.22
2023-01-31T13:28:31.127Z,4.16
2023-01-31T13:31:00.530Z,4.22
2023-01-31T13:33:37.420Z,4.13
2023-01-31T13:36:12.833Z,4.16
2023-01-31T13:38:43.164Z,4.15
2023-01-31T13:41:22.592Z,4.05
2023-01-31T13:43:49.461Z,4.11
2023-01-31T13:46:21.869Z,4.12
2023-01-31T13:49:16.363Z,4.10
2023-01-31T13:51:50.528Z,4.15
2023-01-31T13:54:23.923Z,4.06
2023-01-31T13:56:54.571Z,4.12
2023-01-31T13:59:25.426Z,4.06
2023-01-31T14:01:55.136Z,4.08
2023-01-31T14:04:25.841Z,4.11
2023-01-31T14:06:57.819Z,4.12
2023-01-31T14:09:30.383Z,4.05
2023-01-31T14:11:59.151Z,4.06
2023-01-31T14:14:37.727Z,3.96
2023-01-31T14:17:06.951Z,3.95
2023-01-31T14:19:55.063Z,3.98
2023-01-31T14:22:26.880Z,3.95
2023-01-31T14:24:53.741Z,3.97
2023-01-31T14:27:23.048Z,4.02
2023-01-31T14:30:23.342Z,4.02
2023-01-31T14:33:08.463Z,4.02
2023-01-31T14:35:55.373Z,4.04
2023-01-31T14:38:42.227Z,3.99
2023-01-31T14:41:27.489Z,3.92
2023-01-31T14:44:31.615Z,3.90
2023-01-31T14:47:25.710Z,3.97
2023-01-31T14:50:23.983Z,3.91
2023-01-31T14:53:25.147Z,3.97
2023-01-31T14:56:11.649Z,3.89
2023-01-31T14:58:44.269Z,3.90
2023-01-31T15:01:11.931Z,3.92
2023-01-31T15:03:49.197Z,3.93
2023-01-31T15:06:24.820Z,3.92
2023-01-31T15:09:24.665Z,3.97
2023-01-31T15:11:56.636Z,3.89
2023-01-31T15:14:36.523Z,3.90
2023-01-31T15:17:32.117Z,4.04
2023-01-31T15:20:19.888Z,4.04
2023-01-31T15:22:48.903Z,3.99
2023-01-31T15:25:24.918Z,4.02
2023-01-31T15:27:54.276Z,4.04
2023-01-31T15:30:22.205Z,4.07
2023-01-31T15:33:13.024Z,3.97
2023-01-31T15:36:00.335Z,3.99
2023-01-31T15:38:38.083Z,3.92
2023-01-31T15:41:16.076Z,4.00
2023-01-31T15:43:42.785Z,3.97
2023-01-31T15:46:23.233Z,4.01
2023-01-31T15:48:50.191Z,3.96
2023-01-31T15:51:18.517Z,3.89
2023-01-31T15:53:45.580Z,4.03
2023-01-31T15:56:23.799Z,4.13
2023-01-31T15:58:53.309Z,4.07
2023-01-31T16:01:20.234Z,4.08
2023-01-31T16:03:55.924Z,4.08
2023-01-31T16:06:36.643Z,4.11
2023-01-31T16:09:06.635Z,4.08
2023-01-31T16:11:35.642Z,4.08
2023-01-31T16:14:05.750Z,4.03
2023-01-31T16:16:36.324Z,4.03
2023-01-31T16:19:05.762Z,4.07
2023-01-31T16:21:41.412Z,4.06
2023-01-31T16:24:16.319Z,4.02
2023-01-31T16:27:13.880Z,4.05
2023-01-31T16:29:48.148Z,4.07
2023-01-31T16:32:16.101Z,4.03
2023-01-31T16:34:42.949Z,4.01
2023-01-31T16:37:12.801Z,4.04
2023-01-31T16:39:46.957Z,4.11
2023-01-31T16:42:16.799Z,4.11
2023-01-31T16:44:45.782Z,4.13
2023-01-31T16:47:33.999Z,4.13
2023-01-31T16:50:32.761Z,4.05
2023-01-31T16:53:21.640Z,3.99
2023-01-31T16:56:14.319Z,3.99
2023-01-31T16:58:55.477Z,3.97
2023-01-31T17:01:33.645Z,3.94
2023-01-31T17:04:09.157Z,3.90
2023-01-31T17:06:36.347Z,4.03
2023-01-31T17:09:05.503Z,4.01
2023-01-31T17:11:42.240Z,3.95
2023-01-31T17:14:10.032Z,3.89
2023-01-31T17:16:37.015Z,3.91
2023-01-31T17:19:03.802Z,3.88
2023-01-31T17:21:34.941Z,3.92
2023-01-31T17:24:01.661Z,3.82
2023-01-31T17:26:28.347Z,3.87
2023-01-31T17:29:01.969Z,3.81
2023-01-31T17:31:29.888Z,3.66
2023-01-31T17:33:57.314Z,3.83
2023-01-31T17:36:24.328Z,3.77
2023-01-31T17:38:52.669Z,3.83
2023-01-31T17:41:21.468Z,3.79
2023-01-31T17:43:48.359Z,3.79
2023-01-31T17:46:16.779Z,3.76
2023-01-31T17:48:44.409Z,3.76
2023-01-31T17:51:12.199Z,3.81
2023-01-31T17:53:47.982Z,3.73
2023-01-31T17:56:16.240Z,3.84
2023-01-31T17:58:42.726Z,3.96
2023-01-31T18:01:10.743Z,4.00
2023-01-31T18:03:37.500Z,4.01
2023-01-31T18:06:06.895Z,3.91
2023-01-31T18:08:35.143Z,3.89
2023-01-31T18:11:09.582Z,3.89
2023-01-31T18:13:38.192Z,3.94
2023-01-31T18:16:06.948Z,4.00
2023-01-31T18:18:33.739Z,4.00
2023-01-31T18:21:00.511Z,4.06
2023-01-31T18:23:27.087Z,4.04
2023-01-31T18:25:53.761Z,4.04
2023-01-31T18:28:20.356Z,4.12
2023-01-31T18:30:47.101Z,4.18
2023-01-31T18:33:13.773Z,4.17
2023-01-31T18:35:40.480Z,4.12
2023-01-31T18:38:07.036Z,4.11
2023-01-31T18:40:33.579Z,4.22
2023-01-31T18:43:00.099Z,4.25
2023-01-31T18:45:26.816Z,4.24
2023-01-31T18:47:53.411Z,4.30
2023-01-31T18:50:20.056Z,4.20
2023-01-31T18:52:47.564Z,4.18
2023-01-31T18:55:14.256Z,4.15
2023-01-31T18:57:40.956Z,4.13
2023-01-31T19:00:08.490Z,4.11
2023-01-31T19:02:35.204Z,4.07
2023-01-31T19:05:02.306Z,4.11
2023-01-31T19:07:28.963Z,4.03
2023-01-31T19:09:55.775Z,4.01
2023-01-31T19:12:22.513Z,4.05
2023-01-31T19:14:49.849Z,4.11
2023-01-31T19:17:17.501Z,4.13
2023-01-31T19:19:44.419Z,4.19
2023-01-31T19:22:11.023Z,4.11
2023-01-31T19:24:37.605Z,4.10
2023-01-31T19:27:04.245Z,4.03
2023-01-31T19:29:30.921Z,4.09
2023-01-31T19:31:57.485Z,4.16
2023-01-31T19:34:24.273Z,4.19
2023-01-31T19:36:51.154Z,4.08
2023-01-31T19:39:17.768Z,4.13
2023-01-31T19:41:44.590Z,4.11
2023-01-31T19:44:11.251Z,4.11
2023-01-31T19:46:38.110Z,3.96
2023-01-31T19:49:05.198Z,3.96
2023-01-31T19:51:32.242Z,4.06
2023-01-31T19:54:01.448Z,4.13
2023-01-31T19:56:29.017Z,4.12
2023-01-31T19:58:55.785Z,4.13
2023-01-31T20:01:23.215Z,4.19
2023-01-31T20:03:50.313Z,4.27
2023-01-31T20:06:25.465Z,4.29
2023-01-31T20:08:55.425Z,4.27
2023-01-31T20:11:22.826Z,4.31
2023-01-31T20:13:51.106Z,4.37
2023-01-31T20:16:19.097Z,4.38
2023-01-31T20:18:46.141Z,4.20
2023-01-31T20:21:18.368Z,4.16
2023-01-31T20:23:45.277Z,4.25
2023-01-31T20:26:14.173Z,4.13
2023-01-31T20:28:40.900Z,4.21
2023-01-31T20:31:10.081Z,4.21
2023-01-31T20:33:37.041Z,4.18
2023-01-31T20:36:04.946Z,4.27
2023-01-31T20:38:31.867Z,4.26
2023-01-31T20:40:58.402Z,4.28
2023-01-31T20:43:27.027Z,4.34
2023-01-31T20:45:53.768Z,4.28
2023-01-31T20:48:20.539Z,4.43
2023-01-31T20:50:57.109Z,4.33
2023-01-31T20:53:24.380Z,4.20
2023-01-31T20:55:58.626Z,4.12
2023-01-31T20:58:26.667Z,4.01
2023-01-31T21:00:57.838Z,4.05
2023-01-31T21:03:24.892Z,3.99
2023-01-31T21:05:52.523Z,4.00
2023-01-31T21:08:20.084Z,3.95
2023-01-31T21:10:50.904Z,3.85
2023-01-31T21:13:18.368Z,3.76
2023-01-31T21:15:53.825Z,3.77
2023-01-31T21:18:21.681Z,3.69
2023-01-31T21:20:49.307Z,3.62
2023-01-31T21:23:16.419Z,3.70
2023-01-31T21:25:43.155Z,3.74
2023-01-31T21:28:10.323Z,3.73
2023-01-31T21:30:37.449Z,3.69
2023-01-31T21:33:04.790Z,3.74
2023-01-31T21:35:31.550Z,3.72
2023-01-31T21:37:58.289Z,3.79
2023-01-31T21:40:25.152Z,3.65
2023-01-31T21:42:53.557Z,3.63
2023-01-31T21:45:40.059Z,3.59
2023-01-31T21:48:29.710Z,3.64
2023-01-31T21:50:57.208Z,3.75
2023-01-31T21:53:24.181Z,3.84
2023-01-31T21:55:50.841Z,3.86
2023-01-31T21:58:17.558Z,3.89
2023-01-31T22:00:44.287Z,3.93
2023-01-31T22:03:11.573Z,4.02
2023-01-31T22:05:38.243Z,4.02
2023-01-31T22:08:05.463Z,4.09
2023-01-31T22:10:32.404Z,4.07
2023-01-31T22:12:59.080Z,4.07
2023-01-31T22:15:25.790Z,4.12
2023-01-31T22:17:53.006Z,4.16
2023-01-31T22:20:19.955Z,4.26
2023-01-31T22:22:48.798Z,4.10
2023-01-31T22:25:15.587Z,4.20
2023-01-31T22:27:42.309Z,4.14
2023-01-31T22:30:16.095Z,4.09
2023-01-31T22:32:43.297Z,4.13
2023-01-31T22:35:10.192Z,4.14
2023-01-31T22:37:36.893Z,4.19
2023-01-31T22:40:03.721Z,4.13
2023-01-31T22:42:30.507Z,4.28
2023-01-31T22:44:57.116Z,4.23
2023-01-31T22:47:24.605Z,4.31
2023-01-31T22:49:51.226Z,4.29
2023-01-31T22:52:18.198Z,4.32
2023-01-31T22:54:44.908Z,4.18
2023-01-31T22:57:11.537Z,4.15
2023-01-31T22:59:38.154Z,4.07
2023-01-31T23:02:04.785Z,4.04
2023-01-31T23:04:31.361Z,3.91
2023-01-31T23:06:58.057Z,3.97
2023-01-31T23:09:24.601Z,4.00
2023-01-31T23:11:51.171Z,4.02
2023-01-31T23:14:17.746Z,4.07
2023-01-31T23:17:03.040Z,4.02
2023-01-31T23:19:29.759Z,4.01
2023-01-31T23:21:56.349Z,3.95
2023-01-31T23:24:23.149Z,4.03
2023-01-31T23:26:50.048Z,4.05
2023-01-31T23:29:16.672Z,3.98
2023-01-31T23:31:43.395Z,3.94
2023-01-31T23:34:10.034Z,3.94
2023-01-31T23:36:37.185Z,3.86
2023-01-31T23:39:04.134Z,3.84
2023-01-31T23:41:30.755Z,3.82
2023-01-31T23:43:57.541Z,3.72
2023-01-31T23:46:24.183Z,3.62
2023-01-31T23:48:50.970Z,3.58
2023-01-31T23:51:17.608Z,3.48
2023-01-31T23:53:44.316Z,3.44
2023-01-31T23:56:10.999Z,3.45
2023-01-31T23:58:37.677Z,3.45
